sensor_id;sensor_type;location;lat;lon;timestamp;temperature;humidity
16301;DHT22;8258;51.020;4.248;2023-05-13T00:01:38;13.40;99.90
16301;DHT22;8258;51.020;4.248;2023-05-13T00:04:06;13.40;99.90
16301;DHT22;8258;51.020;4.248;2023-05-13T00:06:35;13.20;99.90
16301;DHT22;8258;51.020;4.248;2023-05-13T00:09:02;13.20;99.90
16301;DHT22;8258;51.020;4.248;2023-05-13T00:11:29;13.20;99.90
16301;DHT22;8258;51.020;4.248;2023-05-13T00:13:56;13.20;99.90
16301;DHT22;8258;51.020;4.248;2023-05-13T00:16:23;13.20;99.90
16301;DHT22;8258;51.020;4.248;2023-05-13T00:18:52;13.20;99.90
16301;DHT22;8258;51.020;4.248;2023-05-13T00:21:19;13.30;99.90
16301;DHT22;8258;51.020;4.248;2023-05-13T00:23:47;13.30;99.90
16301;DHT22;8258;51.020;4.248;2023-05-13T00:26:14;13.30;99.90
16301;DHT22;8258;51.020;4.248;2023-05-13T00:28:41;13.30;99.90
16301;DHT22;8258;51.020;4.248;2023-05-13T00:31:08;13.20;99.90
16301;DHT22;8258;51.020;4.248;2023-05-13T00:33:36;13.20;99.90
16301;DHT22;8258;51.020;4.248;2023-05-13T00:36:03;13.20;99.90
16301;DHT22;8258;51.020;4.248;2023-05-13T00:38:30;13.20;99.90
16301;DHT22;8258;51.020;4.248;2023-05-13T00:40:59;13.20;99.90
16301;DHT22;8258;51.020;4.248;2023-05-13T00:43:26;13.20;99.90
16301;DHT22;8258;51.020;4.248;2023-05-13T00:45:53;13.30;99.90
16301;DHT22;8258;51.020;4.248;2023-05-13T00:48:20;13.30;99.90
16301;DHT22;8258;51.020;4.248;2023-05-13T00:50:48;13.30;99.90
16301;DHT22;8258;51.020;4.248;2023-05-13T00:53:15;13.30;99.90
16301;DHT22;8258;51.020;4.248;2023-05-13T00:55:43;13.30;99.90
16301;DHT22;8258;51.020;4.248;2023-05-13T00:58:12;13.30;99.90
16301;DHT22;8258;51.020;4.248;2023-05-13T01:00:43;13.30;99.90
16301;DHT22;8258;51.020;4.248;2023-05-13T01:03:20;13.30;99.90
16301;DHT22;8258;51.020;4.248;2023-05-13T01:05:57;13.30;99.90
16301;DHT22;8258;51.020;4.248;2023-05-13T01:08:31;13.20;99.90
16301;DHT22;8258;51.020;4.248;2023-05-13T01:11:03;13.20;99.90
16301;DHT22;8258;51.020;4.248;2023-05-13T01:13:36;13.10;99.90
16301;DHT22;8258;51.020;4.248;2023-05-13T01:16:12;13.10;99.90
16301;DHT22;8258;51.020;4.248;2023-05-13T01:18:44;13.10;99.90
16301;DHT22;8258;51.020;4.248;2023-05-13T01:21:11;13.10;99.90
16301;DHT22;8258;51.020;4.248;2023-05-13T01:23:40;13.00;99.90
16301;DHT22;8258;51.020;4.248;2023-05-13T01:26:07;12.90;99.90
16301;DHT22;8258;51.020;4.248;2023-05-13T01:28:34;12.90;99.90
16301;DHT22;8258;51.020;4.248;2023-05-13T01:31:01;12.80;99.90
16301;DHT22;8258;51.020;4.248;2023-05-13T01:33:28;12.80;99.90
16301;DHT22;8258;51.020;4.248;2023-05-13T01:35:56;12.80;99.90
16301;DHT22;8258;51.020;4.248;2023-05-13T01:38:24;12.80;99.90
16301;DHT22;8258;51.020;4.248;2023-05-13T01:40:54;12.80;99.90
16301;DHT22;8258;51.020;4.248;2023-05-13T01:43:21;12.90;99.90
16301;DHT22;8258;51.020;4.248;2023-05-13T01:45:49;12.90;99.90
16301;DHT22;8258;51.020;4.248;2023-05-13T01:48:16;13.00;99.90
16301;DHT22;8258;51.020;4.248;2023-05-13T01:50:44;13.00;99.90
16301;DHT22;8258;51.020;4.248;2023-05-13T01:53:11;13.10;99.90
16301;DHT22;8258;51.020;4.248;2023-05-13T01:55:38;13.10;99.90
16301;DHT22;8258;51.020;4.248;2023-05-13T01:58:06;13.20;99.90
16301;DHT22;8258;51.020;4.248;2023-05-13T02:00:33;13.20;99.90
16301;DHT22;8258;51.020;4.248;2023-05-13T02:03:00;13.30;99.90
16301;DHT22;8258;51.020;4.248;2023-05-13T02:05:27;13.30;99.90
16301;DHT22;8258;51.020;4.248;2023-05-13T02:07:56;13.40;99.90
16301;DHT22;8258;51.020;4.248;2023-05-13T02:10:23;13.30;99.90
16301;DHT22;8258;51.020;4.248;2023-05-13T02:12:50;13.40;99.90
16301;DHT22;8258;51.020;4.248;2023-05-13T02:15:18;13.40;99.90
16301;DHT22;8258;51.020;4.248;2023-05-13T02:17:45;13.40;99.90
16301;DHT22;8258;51.020;4.248;2023-05-13T02:20:13;13.40;99.90
16301;DHT22;8258;51.020;4.248;2023-05-13T02:22:41;13.40;99.90
16301;DHT22;8258;51.020;4.248;2023-05-13T02:25:09;13.40;99.90
16301;DHT22;8258;51.020;4.248;2023-05-13T02:27:36;13.40;99.90
16301;DHT22;8258;51.020;4.248;2023-05-13T02:30:03;13.40;99.90
16301;DHT22;8258;51.020;4.248;2023-05-13T02:32:32;13.30;99.90
16301;DHT22;8258;51.020;4.248;2023-05-13T02:34:59;13.40;99.90
16301;DHT22;8258;51.020;4.248;2023-05-13T02:37:26;13.30;99.90
16301;DHT22;8258;51.020;4.248;2023-05-13T02:39:53;13.30;99.90
16301;DHT22;8258;51.020;4.248;2023-05-13T02:42:20;13.30;99.90
16301;DHT22;8258;51.020;4.248;2023-05-13T02:44:47;13.30;99.90
16301;DHT22;8258;51.020;4.248;2023-05-13T02:47:14;13.20;99.90
16301;DHT22;8258;51.020;4.248;2023-05-13T02:49:42;13.20;99.90
16301;DHT22;8258;51.020;4.248;2023-05-13T02:52:09;13.20;99.90
16301;DHT22;8258;51.020;4.248;2023-05-13T02:54:36;13.20;99.90
16301;DHT22;8258;51.020;4.248;2023-05-13T02:57:03;13.30;99.90
16301;DHT22;8258;51.020;4.248;2023-05-13T02:59:30;13.30;99.90
16301;DHT22;8258;51.020;4.248;2023-05-13T03:01:57;13.20;99.90
16301;DHT22;8258;51.020;4.248;2023-05-13T03:04:24;13.20;99.90
16301;DHT22;8258;51.020;4.248;2023-05-13T03:06:52;13.10;99.90
16301;DHT22;8258;51.020;4.248;2023-05-13T03:09:19;13.10;99.90
16301;DHT22;8258;51.020;4.248;2023-05-13T03:11:47;13.10;99.90
16301;DHT22;8258;51.020;4.248;2023-05-13T03:14:14;13.10;99.90
16301;DHT22;8258;51.020;4.248;2023-05-13T03:16:40;13.10;99.90
16301;DHT22;8258;51.020;4.248;2023-05-13T03:19:09;13.00;99.90
16301;DHT22;8258;51.020;4.248;2023-05-13T03:21:36;13.00;99.90
16301;DHT22;8258;51.020;4.248;2023-05-13T03:24:05;13.00;99.90
16301;DHT22;8258;51.020;4.248;2023-05-13T03:26:32;13.00;99.90
16301;DHT22;8258;51.020;4.248;2023-05-13T03:28:59;13.00;99.90
16301;DHT22;8258;51.020;4.248;2023-05-13T03:31:26;13.00;99.90
16301;DHT22;8258;51.020;4.248;2023-05-13T03:33:53;12.90;99.90
16301;DHT22;8258;51.020;4.248;2023-05-13T03:36:20;12.90;99.90
16301;DHT22;8258;51.020;4.248;2023-05-13T03:38:47;12.80;99.90
16301;DHT22;8258;51.020;4.248;2023-05-13T03:41:15;12.70;99.90
16301;DHT22;8258;51.020;4.248;2023-05-13T03:43:43;12.70;99.90
16301;DHT22;8258;51.020;4.248;2023-05-13T03:46:10;12.70;99.90
16301;DHT22;8258;51.020;4.248;2023-05-13T03:48:37;12.70;99.90
16301;DHT22;8258;51.020;4.248;2023-05-13T03:51:04;12.70;99.90
16301;DHT22;8258;51.020;4.248;2023-05-13T03:53:33;12.70;99.90
16301;DHT22;8258;51.020;4.248;2023-05-13T03:56:00;12.60;99.90
16301;DHT22;8258;51.020;4.248;2023-05-13T03:58:29;12.60;99.90
16301;DHT22;8258;51.020;4.248;2023-05-13T04:00:55;12.50;99.90
16301;DHT22;8258;51.020;4.248;2023-05-13T04:03:22;12.40;99.90
16301;DHT22;8258;51.020;4.248;2023-05-13T04:05:51;12.30;99.90
16301;DHT22;8258;51.020;4.248;2023-05-13T04:08:18;12.30;99.90
16301;DHT22;8258;51.020;4.248;2023-05-13T04:10:44;12.30;99.90
16301;DHT22;8258;51.020;4.248;2023-05-13T04:13:11;12.30;99.90
16301;DHT22;8258;51.020;4.248;2023-05-13T04:15:40;12.30;99.90
16301;DHT22;8258;51.020;4.248;2023-05-13T04:18:09;12.20;99.90
16301;DHT22;8258;51.020;4.248;2023-05-13T04:20:37;12.20;99.90
16301;DHT22;8258;51.020;4.248;2023-05-13T04:23:04;12.20;99.90
16301;DHT22;8258;51.020;4.248;2023-05-13T04:25:31;12.20;99.90
16301;DHT22;8258;51.020;4.248;2023-05-13T04:27:58;12.20;99.90
16301;DHT22;8258;51.020;4.248;2023-05-13T04:30:25;12.10;99.90
16301;DHT22;8258;51.020;4.248;2023-05-13T04:32:53;12.10;99.90
16301;DHT22;8258;51.020;4.248;2023-05-13T04:35:20;12.10;99.90
16301;DHT22;8258;51.020;4.248;2023-05-13T04:37:47;12.20;99.90
16301;DHT22;8258;51.020;4.248;2023-05-13T04:40:15;12.20;99.90
16301;DHT22;8258;51.020;4.248;2023-05-13T04:42:42;12.30;99.90
16301;DHT22;8258;51.020;4.248;2023-05-13T04:45:09;12.20;99.90
16301;DHT22;8258;51.020;4.248;2023-05-13T04:47:36;12.20;99.90
16301;DHT22;8258;51.020;4.248;2023-05-13T04:50:05;12.20;99.90
16301;DHT22;8258;51.020;4.248;2023-05-13T04:52:32;12.30;99.90
16301;DHT22;8258;51.020;4.248;2023-05-13T04:55:01;12.40;99.90
16301;DHT22;8258;51.020;4.248;2023-05-13T04:57:28;12.50;99.90
16301;DHT22;8258;51.020;4.248;2023-05-13T04:59:55;12.50;99.90
16301;DHT22;8258;51.020;4.248;2023-05-13T05:02:22;12.60;99.90
16301;DHT22;8258;51.020;4.248;2023-05-13T05:04:49;12.70;99.90
16301;DHT22;8258;51.020;4.248;2023-05-13T05:07:18;12.80;99.90
16301;DHT22;8258;51.020;4.248;2023-05-13T05:09:44;13.00;99.90
16301;DHT22;8258;51.020;4.248;2023-05-13T05:12:11;13.10;99.90
16301;DHT22;8258;51.020;4.248;2023-05-13T05:14:39;13.30;99.90
16301;DHT22;8258;51.020;4.248;2023-05-13T05:17:06;13.40;99.90
16301;DHT22;8258;51.020;4.248;2023-05-13T05:19:33;13.60;99.90
16301;DHT22;8258;51.020;4.248;2023-05-13T05:22:00;13.70;99.90
16301;DHT22;8258;51.020;4.248;2023-05-13T05:24:28;13.90;99.90
16301;DHT22;8258;51.020;4.248;2023-05-13T05:26:55;13.90;99.90
16301;DHT22;8258;51.020;4.248;2023-05-13T05:29:22;14.00;99.90
16301;DHT22;8258;51.020;4.248;2023-05-13T05:31:49;14.10;99.90
16301;DHT22;8258;51.020;4.248;2023-05-13T05:34:16;14.20;99.90
16301;DHT22;8258;51.020;4.248;2023-05-13T05:36:43;14.20;99.90
16301;DHT22;8258;51.020;4.248;2023-05-13T05:39:10;14.20;99.90
16301;DHT22;8258;51.020;4.248;2023-05-13T05:41:38;14.30;99.90
16301;DHT22;8258;51.020;4.248;2023-05-13T05:44:05;14.30;99.90
16301;DHT22;8258;51.020;4.248;2023-05-13T05:46:32;14.40;99.90
16301;DHT22;8258;51.020;4.248;2023-05-13T05:48:59;14.50;99.90
16301;DHT22;8258;51.020;4.248;2023-05-13T05:51:28;14.50;99.90
16301;DHT22;8258;51.020;4.248;2023-05-13T05:53:54;14.50;99.90
16301;DHT22;8258;51.020;4.248;2023-05-13T05:56:21;14.60;99.90
16301;DHT22;8258;51.020;4.248;2023-05-13T05:58:50;14.60;99.90
16301;DHT22;8258;51.020;4.248;2023-05-13T06:01:17;14.70;99.90
16301;DHT22;8258;51.020;4.248;2023-05-13T06:03:44;14.80;99.90
16301;DHT22;8258;51.020;4.248;2023-05-13T06:06:11;14.80;99.90
16301;DHT22;8258;51.020;4.248;2023-05-13T06:08:38;14.90;99.90
16301;DHT22;8258;51.020;4.248;2023-05-13T06:11:05;15.00;99.90
16301;DHT22;8258;51.020;4.248;2023-05-13T06:13:32;15.20;99.90
16301;DHT22;8258;51.020;4.248;2023-05-13T06:16:01;15.40;99.90
16301;DHT22;8258;51.020;4.248;2023-05-13T06:18:28;15.60;99.90
16301;DHT22;8258;51.020;4.248;2023-05-13T06:20:55;15.70;99.90
16301;DHT22;8258;51.020;4.248;2023-05-13T06:23:22;15.90;99.90
16301;DHT22;8258;51.020;4.248;2023-05-13T06:25:49;16.10;99.90
16301;DHT22;8258;51.020;4.248;2023-05-13T06:28:16;16.20;99.90
16301;DHT22;8258;51.020;4.248;2023-05-13T06:30:43;16.20;99.90
16301;DHT22;8258;51.020;4.248;2023-05-13T06:33:11;16.20;99.90
16301;DHT22;8258;51.020;4.248;2023-05-13T06:35:39;16.20;99.90
16301;DHT22;8258;51.020;4.248;2023-05-13T06:38:06;16.40;99.90
16301;DHT22;8258;51.020;4.248;2023-05-13T06:40:33;16.50;99.90
16301;DHT22;8258;51.020;4.248;2023-05-13T06:43:00;16.70;99.90
16301;DHT22;8258;51.020;4.248;2023-05-13T06:45:27;16.80;99.90
16301;DHT22;8258;51.020;4.248;2023-05-13T06:47:54;16.90;99.90
16301;DHT22;8258;51.020;4.248;2023-05-13T06:50:22;16.90;99.90
16301;DHT22;8258;51.020;4.248;2023-05-13T06:52:49;16.80;99.90
16301;DHT22;8258;51.020;4.248;2023-05-13T06:55:16;16.90;99.90
16301;DHT22;8258;51.020;4.248;2023-05-13T06:57:44;17.10;99.90
16301;DHT22;8258;51.020;4.248;2023-05-13T07:00:12;17.30;99.90
16301;DHT22;8258;51.020;4.248;2023-05-13T07:02:39;17.50;99.90
16301;DHT22;8258;51.020;4.248;2023-05-13T07:05:07;18.00;99.90
16301;DHT22;8258;51.020;4.248;2023-05-13T07:07:35;18.40;99.90
16301;DHT22;8258;51.020;4.248;2023-05-13T07:10:03;19.10;99.90
16301;DHT22;8258;51.020;4.248;2023-05-13T07:12:30;19.80;99.90
16301;DHT22;8258;51.020;4.248;2023-05-13T07:14:57;19.70;99.90
16301;DHT22;8258;51.020;4.248;2023-05-13T07:17:24;20.00;99.90
16301;DHT22;8258;51.020;4.248;2023-05-13T07:19:51;20.00;99.90
16301;DHT22;8258;51.020;4.248;2023-05-13T07:22:17;19.80;99.90
16301;DHT22;8258;51.020;4.248;2023-05-13T07:24:46;20.30;99.90
16301;DHT22;8258;51.020;4.248;2023-05-13T07:27:13;20.60;99.90
16301;DHT22;8258;51.020;4.248;2023-05-13T07:29:40;20.50;99.90
16301;DHT22;8258;51.020;4.248;2023-05-13T07:32:07;20.90;99.90
16301;DHT22;8258;51.020;4.248;2023-05-13T07:34:34;21.50;99.90
16301;DHT22;8258;51.020;4.248;2023-05-13T07:37:01;22.60;99.90
16301;DHT22;8258;51.020;4.248;2023-05-13T07:39:29;23.00;99.90
16301;DHT22;8258;51.020;4.248;2023-05-13T07:41:57;23.10;99.90
16301;DHT22;8258;51.020;4.248;2023-05-13T07:44:24;22.80;99.90
16301;DHT22;8258;51.020;4.248;2023-05-13T07:46:51;22.90;99.90
16301;DHT22;8258;51.020;4.248;2023-05-13T07:49:18;23.70;99.90
16301;DHT22;8258;51.020;4.248;2023-05-13T07:51:46;24.30;99.90
16301;DHT22;8258;51.020;4.248;2023-05-13T07:54:12;25.00;99.90
16301;DHT22;8258;51.020;4.248;2023-05-13T07:56:39;25.50;99.80
16301;DHT22;8258;51.020;4.248;2023-05-13T07:59:10;25.50;98.80
16301;DHT22;8258;51.020;4.248;2023-05-13T08:01:37;25.50;99.00
16301;DHT22;8258;51.020;4.248;2023-05-13T08:04:04;25.40;98.30
16301;DHT22;8258;51.020;4.248;2023-05-13T08:06:31;25.30;98.90
16301;DHT22;8258;51.020;4.248;2023-05-13T08:08:58;25.30;98.10
16301;DHT22;8258;51.020;4.248;2023-05-13T08:11:26;24.50;98.90
16301;DHT22;8258;51.020;4.248;2023-05-13T08:13:53;23.20;99.90
16301;DHT22;8258;51.020;4.248;2023-05-13T08:16:21;21.90;99.90
16301;DHT22;8258;51.020;4.248;2023-05-13T08:18:48;21.10;99.90
16301;DHT22;8258;51.020;4.248;2023-05-13T08:21:15;20.70;99.90
16301;DHT22;8258;51.020;4.248;2023-05-13T08:23:42;20.50;99.90
16301;DHT22;8258;51.020;4.248;2023-05-13T08:26:09;21.00;99.90
16301;DHT22;8258;51.020;4.248;2023-05-13T08:28:36;20.90;99.90
16301;DHT22;8258;51.020;4.248;2023-05-13T08:31:03;21.60;99.90
16301;DHT22;8258;51.020;4.248;2023-05-13T08:33:32;23.20;99.90
16301;DHT22;8258;51.020;4.248;2023-05-13T08:35:59;24.90;99.90
16301;DHT22;8258;51.020;4.248;2023-05-13T08:38:26;25.30;99.90
16301;DHT22;8258;51.020;4.248;2023-05-13T08:40:53;24.80;99.90
16301;DHT22;8258;51.020;4.248;2023-05-13T08:43:23;25.20;99.90
16301;DHT22;8258;51.020;4.248;2023-05-13T08:45:50;26.10;99.40
16301;DHT22;8258;51.020;4.248;2023-05-13T08:48:19;26.80;98.50
16301;DHT22;8258;51.020;4.248;2023-05-13T08:50:47;27.00;96.50
16301;DHT22;8258;51.020;4.248;2023-05-13T08:53:16;26.70;96.40
16301;DHT22;8258;51.020;4.248;2023-05-13T08:55:43;26.00;97.30
16301;DHT22;8258;51.020;4.248;2023-05-13T08:58:10;26.10;96.90
16301;DHT22;8258;51.020;4.248;2023-05-13T09:00:38;26.50;97.40
16301;DHT22;8258;51.020;4.248;2023-05-13T09:03:06;26.00;97.20
16301;DHT22;8258;51.020;4.248;2023-05-13T09:05:33;25.60;97.40
16301;DHT22;8258;51.020;4.248;2023-05-13T09:08:06;25.70;98.00
16301;DHT22;8258;51.020;4.248;2023-05-13T09:10:34;26.80;97.90
16301;DHT22;8258;51.020;4.248;2023-05-13T09:13:01;27.30;94.90
16301;DHT22;8258;51.020;4.248;2023-05-13T09:15:29;27.60;94.40
16301;DHT22;8258;51.020;4.248;2023-05-13T09:17:58;27.30;94.00
16301;DHT22;8258;51.020;4.248;2023-05-13T09:20:26;27.00;95.70
16301;DHT22;8258;51.020;4.248;2023-05-13T09:22:55;27.70;94.40
16301;DHT22;8258;51.020;4.248;2023-05-13T09:25:24;28.10;94.00
16301;DHT22;8258;51.020;4.248;2023-05-13T09:27:53;27.90;93.10
16301;DHT22;8258;51.020;4.248;2023-05-13T09:30:23;28.00;92.80
16301;DHT22;8258;51.020;4.248;2023-05-13T09:33:07;27.20;93.30
16301;DHT22;8258;51.020;4.248;2023-05-13T09:35:35;27.80;92.60
16301;DHT22;8258;51.020;4.248;2023-05-13T09:38:11;27.40;93.60
16301;DHT22;8258;51.020;4.248;2023-05-13T09:40:40;27.50;94.00
16301;DHT22;8258;51.020;4.248;2023-05-13T09:43:07;28.40;92.40
16301;DHT22;8258;51.020;4.248;2023-05-13T09:45:35;28.80;91.90
16301;DHT22;8258;51.020;4.248;2023-05-13T09:48:02;29.30;90.30
16301;DHT22;8258;51.020;4.248;2023-05-13T09:50:30;29.60;88.60
16301;DHT22;8258;51.020;4.248;2023-05-13T09:52:58;29.40;85.60
16301;DHT22;8258;51.020;4.248;2023-05-13T09:55:35;29.50;90.40
16301;DHT22;8258;51.020;4.248;2023-05-13T09:58:09;28.60;86.80
16301;DHT22;8258;51.020;4.248;2023-05-13T10:00:37;28.40;90.30
16301;DHT22;8258;51.020;4.248;2023-05-13T10:03:05;28.10;90.60
16301;DHT22;8258;51.020;4.248;2023-05-13T10:05:32;29.00;90.80
16301;DHT22;8258;51.020;4.248;2023-05-13T10:08:00;28.70;88.70
16301;DHT22;8258;51.020;4.248;2023-05-13T10:10:29;28.80;90.70
16301;DHT22;8258;51.020;4.248;2023-05-13T10:12:59;29.50;86.60
16301;DHT22;8258;51.020;4.248;2023-05-13T10:15:29;29.10;87.60
16301;DHT22;8258;51.020;4.248;2023-05-13T10:17:57;28.60;88.90
16301;DHT22;8258;51.020;4.248;2023-05-13T10:20:25;29.40;86.20
16301;DHT22;8258;51.020;4.248;2023-05-13T10:22:53;30.10;85.10
16301;DHT22;8258;51.020;4.248;2023-05-13T10:25:20;29.70;85.10
16301;DHT22;8258;51.020;4.248;2023-05-13T10:27:49;29.70;85.60
16301;DHT22;8258;51.020;4.248;2023-05-13T10:30:17;29.20;86.50
16301;DHT22;8258;51.020;4.248;2023-05-13T10:32:46;29.50;84.00
16301;DHT22;8258;51.020;4.248;2023-05-13T10:35:15;30.40;84.30
16301;DHT22;8258;51.020;4.248;2023-05-13T10:38:05;31.00;80.90
16301;DHT22;8258;51.020;4.248;2023-05-13T10:43:38;30.10;81.00
16301;DHT22;8258;51.020;4.248;2023-05-13T10:46:06;29.60;84.20
16301;DHT22;8258;51.020;4.248;2023-05-13T10:48:39;29.20;82.70
16301;DHT22;8258;51.020;4.248;2023-05-13T10:51:08;29.30;85.30
16301;DHT22;8258;51.020;4.248;2023-05-13T10:53:36;30.30;85.20
16301;DHT22;8258;51.020;4.248;2023-05-13T10:56:08;30.80;80.30
16301;DHT22;8258;51.020;4.248;2023-05-13T10:58:36;30.50;80.60
16301;DHT22;8258;51.020;4.248;2023-05-13T11:01:15;31.00;79.20
16301;DHT22;8258;51.020;4.248;2023-05-13T11:03:51;31.20;76.50
16301;DHT22;8258;51.020;4.248;2023-05-13T11:06:19;30.00;80.00
16301;DHT22;8258;51.020;4.248;2023-05-13T11:08:48;30.20;81.80
16301;DHT22;8258;51.020;4.248;2023-05-13T11:11:23;30.80;78.00
16301;DHT22;8258;51.020;4.248;2023-05-13T11:13:53;31.00;78.60
16301;DHT22;8258;51.020;4.248;2023-05-13T11:16:20;31.20;79.10
16301;DHT22;8258;51.020;4.248;2023-05-13T11:18:49;30.90;77.80
16301;DHT22;8258;51.020;4.248;2023-05-13T11:21:17;29.90;79.40
16301;DHT22;8258;51.020;4.248;2023-05-13T11:23:56;29.60;79.10
16301;DHT22;8258;51.020;4.248;2023-05-13T11:26:23;29.40;81.30
16301;DHT22;8258;51.020;4.248;2023-05-13T11:28:58;28.70;82.40
16301;DHT22;8258;51.020;4.248;2023-05-13T11:31:26;29.20;81.70
16301;DHT22;8258;51.020;4.248;2023-05-13T11:34:09;29.20;79.90
16301;DHT22;8258;51.020;4.248;2023-05-13T11:36:38;30.00;81.80
16301;DHT22;8258;51.020;4.248;2023-05-13T11:39:07;31.10;81.00
16301;DHT22;8258;51.020;4.248;2023-05-13T11:41:36;31.80;75.90
16301;DHT22;8258;51.020;4.248;2023-05-13T11:44:04;32.30;75.10
16301;DHT22;8258;51.020;4.248;2023-05-13T11:46:31;32.00;71.90
16301;DHT22;8258;51.020;4.248;2023-05-13T11:48:58;32.10;74.00
16301;DHT22;8258;51.020;4.248;2023-05-13T11:51:26;32.40;68.40
16301;DHT22;8258;51.020;4.248;2023-05-13T11:54:03;32.10;69.30
16301;DHT22;8258;51.020;4.248;2023-05-13T11:56:30;32.20;68.50
16301;DHT22;8258;51.020;4.248;2023-05-13T11:59:13;32.10;69.50
16301;DHT22;8258;51.020;4.248;2023-05-13T12:01:40;32.50;68.50
16301;DHT22;8258;51.020;4.248;2023-05-13T12:04:07;32.00;68.30
16301;DHT22;8258;51.020;4.248;2023-05-13T12:06:42;32.20;71.10
16301;DHT22;8258;51.020;4.248;2023-05-13T12:09:11;31.40;66.40
16301;DHT22;8258;51.020;4.248;2023-05-13T12:11:39;31.00;69.20
16301;DHT22;8258;51.020;4.248;2023-05-13T12:14:07;31.00;72.00
16301;DHT22;8258;51.020;4.248;2023-05-13T12:16:34;31.90;66.00
16301;DHT22;8258;51.020;4.248;2023-05-13T12:19:03;31.80;65.80
16301;DHT22;8258;51.020;4.248;2023-05-13T12:21:31;31.20;68.50
16301;DHT22;8258;51.020;4.248;2023-05-13T12:24:00;31.80;70.40
16301;DHT22;8258;51.020;4.248;2023-05-13T12:26:27;32.10;67.80
16301;DHT22;8258;51.020;4.248;2023-05-13T12:28:57;31.00;71.70
16301;DHT22;8258;51.020;4.248;2023-05-13T12:31:25;31.60;73.00
16301;DHT22;8258;51.020;4.248;2023-05-13T12:33:52;31.80;72.50
16301;DHT22;8258;51.020;4.248;2023-05-13T12:36:20;30.30;75.70
16301;DHT22;8258;51.020;4.248;2023-05-13T12:38:55;28.00;84.30
16301;DHT22;8258;51.020;4.248;2023-05-13T12:41:25;27.50;94.20
16301;DHT22;8258;51.020;4.248;2023-05-13T12:43:57;26.20;95.10
16301;DHT22;8258;51.020;4.248;2023-05-13T12:46:25;26.60;98.90
16301;DHT22;8258;51.020;4.248;2023-05-13T12:48:54;27.40;96.20
16301;DHT22;8258;51.020;4.248;2023-05-13T12:51:21;26.70;95.90
16301;DHT22;8258;51.020;4.248;2023-05-13T12:53:49;27.00;96.70
16301;DHT22;8258;51.020;4.248;2023-05-13T12:56:19;28.90;94.60
16301;DHT22;8258;51.020;4.248;2023-05-13T12:58:48;29.60;92.90
16301;DHT22;8258;51.020;4.248;2023-05-13T13:01:16;30.00;92.40
16301;DHT22;8258;51.020;4.248;2023-05-13T13:03:43;30.50;90.70
16301;DHT22;8258;51.020;4.248;2023-05-13T13:06:11;30.30;90.20
16301;DHT22;8258;51.020;4.248;2023-05-13T13:08:38;29.60;91.80
16301;DHT22;8258;51.020;4.248;2023-05-13T13:11:05;31.30;90.80
16301;DHT22;8258;51.020;4.248;2023-05-13T13:13:33;32.30;87.40
16301;DHT22;8258;51.020;4.248;2023-05-13T13:16:02;32.20;79.80
16301;DHT22;8258;51.020;4.248;2023-05-13T13:18:29;32.10;82.20
16301;DHT22;8258;51.020;4.248;2023-05-13T13:20:56;31.90;81.60
16301;DHT22;8258;51.020;4.248;2023-05-13T13:23:23;31.80;86.00
16301;DHT22;8258;51.020;4.248;2023-05-13T13:25:50;32.30;80.40
16301;DHT22;8258;51.020;4.248;2023-05-13T13:28:17;32.00;82.10
16301;DHT22;8258;51.020;4.248;2023-05-13T13:30:44;32.10;80.70
16301;DHT22;8258;51.020;4.248;2023-05-13T13:33:16;31.90;78.60
16301;DHT22;8258;51.020;4.248;2023-05-13T13:35:45;31.30;80.30
16301;DHT22;8258;51.020;4.248;2023-05-13T13:38:13;31.50;82.30
16301;DHT22;8258;51.020;4.248;2023-05-13T13:40:40;31.60;80.70
16301;DHT22;8258;51.020;4.248;2023-05-13T13:43:07;31.90;80.70
16301;DHT22;8258;51.020;4.248;2023-05-13T13:45:35;32.00;79.30
16301;DHT22;8258;51.020;4.248;2023-05-13T13:48:02;32.00;79.40
16301;DHT22;8258;51.020;4.248;2023-05-13T13:50:32;30.90;83.50
16301;DHT22;8258;51.020;4.248;2023-05-13T13:52:58;29.40;89.50
16301;DHT22;8258;51.020;4.248;2023-05-13T13:55:25;30.50;87.70
16301;DHT22;8258;51.020;4.248;2023-05-13T13:57:53;31.40;84.80
16301;DHT22;8258;51.020;4.248;2023-05-13T14:00:20;31.30;81.80
16301;DHT22;8258;51.020;4.248;2023-05-13T14:02:47;29.30;88.50
16301;DHT22;8258;51.020;4.248;2023-05-13T14:05:14;28.30;91.00
16301;DHT22;8258;51.020;4.248;2023-05-13T14:07:43;27.60;94.40
16301;DHT22;8258;51.020;4.248;2023-05-13T14:10:10;27.80;93.30
16301;DHT22;8258;51.020;4.248;2023-05-13T14:12:37;27.90;94.70
16301;DHT22;8258;51.020;4.248;2023-05-13T14:15:06;29.70;92.70
16301;DHT22;8258;51.020;4.248;2023-05-13T14:17:33;30.40;90.00
16301;DHT22;8258;51.020;4.248;2023-05-13T14:20:00;30.70;90.00
16301;DHT22;8258;51.020;4.248;2023-05-13T14:22:26;29.80;91.20
16301;DHT22;8258;51.020;4.248;2023-05-13T14:24:55;28.40;93.10
16301;DHT22;8258;51.020;4.248;2023-05-13T14:27:22;26.50;98.30
16301;DHT22;8258;51.020;4.248;2023-05-13T14:29:49;25.20;99.90
16301;DHT22;8258;51.020;4.248;2023-05-13T14:32:16;25.70;99.90
16301;DHT22;8258;51.020;4.248;2023-05-13T14:34:43;27.50;99.90
16301;DHT22;8258;51.020;4.248;2023-05-13T14:37:10;28.50;99.90
16301;DHT22;8258;51.020;4.248;2023-05-13T14:39:37;29.00;98.40
16301;DHT22;8258;51.020;4.248;2023-05-13T14:42:06;28.90;98.10
16301;DHT22;8258;51.020;4.248;2023-05-13T14:44:33;28.90;98.40
16301;DHT22;8258;51.020;4.248;2023-05-13T14:47:01;29.60;97.60
16301;DHT22;8258;51.020;4.248;2023-05-13T14:49:28;30.40;96.20
16301;DHT22;8258;51.020;4.248;2023-05-13T14:51:55;29.70;94.60
16301;DHT22;8258;51.020;4.248;2023-05-13T14:54:22;29.60;94.90
16301;DHT22;8258;51.020;4.248;2023-05-13T14:56:50;28.60;96.20
16301;DHT22;8258;51.020;4.248;2023-05-13T14:59:18;27.50;96.90
16301;DHT22;8258;51.020;4.248;2023-05-13T15:01:45;26.20;99.90
16301;DHT22;8258;51.020;4.248;2023-05-13T15:04:12;25.70;99.90
16301;DHT22;8258;51.020;4.248;2023-05-13T15:06:39;24.60;99.90
16301;DHT22;8258;51.020;4.248;2023-05-13T15:09:06;23.60;99.90
16301;DHT22;8258;51.020;4.248;2023-05-13T15:11:33;23.10;99.90
16301;DHT22;8258;51.020;4.248;2023-05-13T15:14:01;22.70;99.90
16301;DHT22;8258;51.020;4.248;2023-05-13T15:16:29;22.40;99.90
16301;DHT22;8258;51.020;4.248;2023-05-13T15:18:56;22.10;99.90
16301;DHT22;8258;51.020;4.248;2023-05-13T15:21:23;22.10;99.90
16301;DHT22;8258;51.020;4.248;2023-05-13T15:23:50;22.20;99.90
16301;DHT22;8258;51.020;4.248;2023-05-13T15:26:17;22.40;99.90
16301;DHT22;8258;51.020;4.248;2023-05-13T15:28:44;23.90;99.90
16301;DHT22;8258;51.020;4.248;2023-05-13T15:31:11;25.30;99.90
16301;DHT22;8258;51.020;4.248;2023-05-13T15:33:39;25.60;99.90
16301;DHT22;8258;51.020;4.248;2023-05-13T15:36:07;25.40;99.90
16301;DHT22;8258;51.020;4.248;2023-05-13T15:38:35;25.60;99.90
16301;DHT22;8258;51.020;4.248;2023-05-13T15:41:02;26.20;99.90
16301;DHT22;8258;51.020;4.248;2023-05-13T15:43:29;26.20;99.90
16301;DHT22;8258;51.020;4.248;2023-05-13T15:45:56;25.60;99.90
16301;DHT22;8258;51.020;4.248;2023-05-13T15:48:23;26.10;99.90
16301;DHT22;8258;51.020;4.248;2023-05-13T15:50:52;26.80;99.90
16301;DHT22;8258;51.020;4.248;2023-05-13T15:53:19;27.20;99.90